sensor_id;sensor_type;location;lat;lon;timestamp;P1;durP1;ratioP1;P2;durP2;ratioP2
22213;SDS011;11276;43.566;27.824;2022-09-06T00:00:39;14.97;;;3.87;;
22213;SDS011;11276;43.566;27.824;2022-09-06T00:03:06;4.60;;;3.37;;
22213;SDS011;11276;43.566;27.824;2022-09-06T00:05:33;8.03;;;3.73;;
22213;SDS011;11276;43.566;27.824;2022-09-06T00:08:01;13.90;;;4.27;;
22213;SDS011;11276;43.566;27.824;2022-09-06T00:10:29;8.07;;;3.87;;
22213;SDS011;11276;43.566;27.824;2022-09-06T00:13:00;8.87;;;3.70;;
22213;SDS011;11276;43.566;27.824;2022-09-06T00:15:29;6.10;;;3.27;;
22213;SDS011;11276;43.566;27.824;2022-09-06T00:17:59;8.83;;;3.63;;
22213;SDS011;11276;43.566;27.824;2022-09-06T00:20:28;4.50;;;3.60;;
22213;SDS011;11276;43.566;27.824;2022-09-06T00:23:00;11.07;;;4.53;;
22213;SDS011;11276;43.566;27.824;2022-09-06T00:25:31;8.20;;;3.80;;
22213;SDS011;11276;43.566;27.824;2022-09-06T00:27:59;7.80;;;3.50;;
22213;SDS011;11276;43.566;27.824;2022-09-06T00:30:29;5.60;;;3.70;;
22213;SDS011;11276;43.566;27.824;2022-09-06T00:32:57;5.63;;;3.77;;
22213;SDS011;11276;43.566;27.824;2022-09-06T00:35:24;8.73;;;3.90;;
22213;SDS011;11276;43.566;27.824;2022-09-06T00:37:56;11.10;;;4.20;;
22213;SDS011;11276;43.566;27.824;2022-09-06T00:40:24;5.80;;;4.00;;
22213;SDS011;11276;43.566;27.824;2022-09-06T00:42:52;5.70;;;3.20;;
22213;SDS011;11276;43.566;27.824;2022-09-06T00:45:19;6.63;;;2.93;;
22213;SDS011;11276;43.566;27.824;2022-09-06T00:47:47;4.37;;;2.80;;
22213;SDS011;11276;43.566;27.824;2022-09-06T00:50:15;5.20;;;3.33;;
22213;SDS011;11276;43.566;27.824;2022-09-06T00:52:44;5.33;;;3.80;;
22213;SDS011;11276;43.566;27.824;2022-09-06T00:55:14;5.33;;;3.23;;
22213;SDS011;11276;43.566;27.824;2022-09-06T00:57:41;2.80;;;2.60;;
22213;SDS011;11276;43.566;27.824;2022-09-06T01:00:09;6.60;;;2.83;;
22213;SDS011;11276;43.566;27.824;2022-09-06T01:02:36;9.03;;;2.87;;
22213;SDS011;11276;43.566;27.824;2022-09-06T01:05:03;6.43;;;2.77;;
22213;SDS011;11276;43.566;27.824;2022-09-06T01:10:42;4.93;;;3.23;;
22213;SDS011;11276;43.566;27.824;2022-09-06T01:21:37;4.07;;;3.20;;
22213;SDS011;11276;43.566;27.824;2022-09-06T01:29:43;6.30;;;3.47;;
22213;SDS011;11276;43.566;27.824;2022-09-06T01:32:24;3.83;;;3.07;;
22213;SDS011;11276;43.566;27.824;2022-09-06T01:35:02;6.00;;;3.77;;
22213;SDS011;11276;43.566;27.824;2022-09-06T01:37:36;5.07;;;2.93;;
22213;SDS011;11276;43.566;27.824;2022-09-06T01:40:03;3.60;;;3.20;;
22213;SDS011;11276;43.566;27.824;2022-09-06T01:42:30;4.73;;;2.90;;
22213;SDS011;11276;43.566;27.824;2022-09-06T01:47:37;3.23;;;2.80;;
22213;SDS011;11276;43.566;27.824;2022-09-06T01:53:21;3.80;;;2.50;;
22213;SDS011;11276;43.566;27.824;2022-09-06T01:56:09;4.70;;;3.27;;
22213;SDS011;11276;43.566;27.824;2022-09-06T01:58:58;5.90;;;3.13;;
22213;SDS011;11276;43.566;27.824;2022-09-06T02:07:21;6.07;;;3.37;;
22213;SDS011;11276;43.566;27.824;2022-09-06T02:10:03;4.70;;;3.10;;
22213;SDS011;11276;43.566;27.824;2022-09-06T02:12:32;10.00;;;3.30;;
22213;SDS011;11276;43.566;27.824;2022-09-06T02:15:03;3.40;;;2.93;;
22213;SDS011;11276;43.566;27.824;2022-09-06T02:17:41;4.20;;;3.10;;
22213;SDS011;11276;43.566;27.824;2022-09-06T02:20:17;4.00;;;3.00;;
22213;SDS011;11276;43.566;27.824;2022-09-06T02:22:48;6.93;;;4.23;;
22213;SDS011;11276;43.566;27.824;2022-09-06T02:25:23;6.80;;;3.00;;
22213;SDS011;11276;43.566;27.824;2022-09-06T02:27:53;3.70;;;3.37;;
22213;SDS011;11276;43.566;27.824;2022-09-06T02:30:20;5.07;;;2.80;;
22213;SDS011;11276;43.566;27.824;2022-09-06T02:33:07;4.60;;;3.60;;
22213;SDS011;11276;43.566;27.824;2022-09-06T02:35:42;4.67;;;3.50;;
22213;SDS011;11276;43.566;27.824;2022-09-06T02:38:12;7.30;;;3.13;;
22213;SDS011;11276;43.566;27.824;2022-09-06T02:40:40;5.77;;;3.67;;
22213;SDS011;11276;43.566;27.824;2022-09-06T02:43:08;6.03;;;3.00;;
22213;SDS011;11276;43.566;27.824;2022-09-06T02:45:35;3.50;;;3.20;;
22213;SDS011;11276;43.566;27.824;2022-09-06T02:48:02;3.70;;;2.90;;
22213;SDS011;11276;43.566;27.824;2022-09-06T02:50:29;3.33;;;3.00;;
22213;SDS011;11276;43.566;27.824;2022-09-06T02:53:03;4.30;;;3.27;;
22213;SDS011;11276;43.566;27.824;2022-09-06T02:55:35;8.10;;;3.23;;
22213;SDS011;11276;43.566;27.824;2022-09-06T02:58:02;5.70;;;3.67;;
22213;SDS011;11276;43.566;27.824;2022-09-06T03:00:30;6.47;;;3.53;;
22213;SDS011;11276;43.566;27.824;2022-09-06T03:02:57;4.00;;;3.40;;
22213;SDS011;11276;43.566;27.824;2022-09-06T03:05:25;5.43;;;3.70;;
22213;SDS011;11276;43.566;27.824;2022-09-06T03:07:53;12.50;;;3.20;;
22213;SDS011;11276;43.566;27.824;2022-09-06T03:10:20;3.47;;;2.80;;
22213;SDS011;11276;43.566;27.824;2022-09-06T03:12:48;6.47;;;3.40;;
22213;SDS011;11276;43.566;27.824;2022-09-06T03:15:15;4.03;;;3.07;;
22213;SDS011;11276;43.566;27.824;2022-09-06T03:17:42;4.87;;;3.67;;
22213;SDS011;11276;43.566;27.824;2022-09-06T03:20:10;3.83;;;3.40;;
22213;SDS011;11276;43.566;27.824;2022-09-06T03:22:37;4.93;;;3.47;;
22213;SDS011;11276;43.566;27.824;2022-09-06T03:25:05;6.60;;;3.63;;
22213;SDS011;11276;43.566;27.824;2022-09-06T03:27:32;4.30;;;2.70;;
22213;SDS011;11276;43.566;27.824;2022-09-06T03:29:59;18.33;;;3.53;;
22213;SDS011;11276;43.566;27.824;2022-09-06T03:32:26;6.63;;;3.03;;
22213;SDS011;11276;43.566;27.824;2022-09-06T03:34:53;7.50;;;3.57;;
22213;SDS011;11276;43.566;27.824;2022-09-06T03:37:19;7.77;;;3.17;;
22213;SDS011;11276;43.566;27.824;2022-09-06T03:39:46;9.40;;;4.20;;
22213;SDS011;11276;43.566;27.824;2022-09-06T03:42:13;8.47;;;3.50;;
22213;SDS011;11276;43.566;27.824;2022-09-06T03:44:40;3.80;;;3.20;;
22213;SDS011;11276;43.566;27.824;2022-09-06T03:47:06;13.40;;;3.37;;
22213;SDS011;11276;43.566;27.824;2022-09-06T03:49:33;16.33;;;3.83;;
22213;SDS011;11276;43.566;27.824;2022-09-06T03:52:00;8.03;;;3.77;;
22213;SDS011;11276;43.566;27.824;2022-09-06T03:54:27;6.33;;;3.80;;
22213;SDS011;11276;43.566;27.824;2022-09-06T03:56:54;8.83;;;3.70;;
22213;SDS011;11276;43.566;27.824;2022-09-06T03:59:21;7.33;;;3.43;;
22213;SDS011;11276;43.566;27.824;2022-09-06T04:01:48;7.27;;;3.87;;
22213;SDS011;11276;43.566;27.824;2022-09-06T04:04:14;5.77;;;3.83;;
22213;SDS011;11276;43.566;27.824;2022-09-06T04:06:41;9.50;;;5.07;;
22213;SDS011;11276;43.566;27.824;2022-09-06T04:09:08;9.87;;;4.40;;
22213;SDS011;11276;43.566;27.824;2022-09-06T04:11:35;8.43;;;3.67;;
22213;SDS011;11276;43.566;27.824;2022-09-06T04:14:01;26.30;;;4.27;;
22213;SDS011;11276;43.566;27.824;2022-09-06T04:16:28;11.93;;;4.83;;
22213;SDS011;11276;43.566;27.824;2022-09-06T04:18:55;11.63;;;3.93;;
22213;SDS011;11276;43.566;27.824;2022-09-06T04:21:23;12.23;;;4.73;;
22213;SDS011;11276;43.566;27.824;2022-09-06T04:23:49;13.10;;;4.37;;
22213;SDS011;11276;43.566;27.824;2022-09-06T04:26:16;18.00;;;4.00;;
22213;SDS011;11276;43.566;27.824;2022-09-06T04:28:43;22.57;;;4.43;;
22213;SDS011;11276;43.566;27.824;2022-09-06T04:31:09;12.50;;;3.90;;
22213;SDS011;11276;43.566;27.824;2022-09-06T04:33:36;32.20;;;4.77;;
22213;SDS011;11276;43.566;27.824;2022-09-06T04:36:05;11.97;;;4.90;;
22213;SDS011;11276;43.566;27.824;2022-09-06T04:38:34;14.13;;;4.30;;
22213;SDS011;11276;43.566;27.824;2022-09-06T04:41:03;14.57;;;3.90;;
22213;SDS011;11276;43.566;27.824;2022-09-06T04:43:31;9.00;;;3.90;;
22213;SDS011;11276;43.566;27.824;2022-09-06T04:48:45;9.30;;;4.50;;
22213;SDS011;11276;43.566;27.824;2022-09-06T04:51:13;7.50;;;4.00;;
22213;SDS011;11276;43.566;27.824;2022-09-06T04:53:40;14.17;;;4.20;;
22213;SDS011;11276;43.566;27.824;2022-09-06T04:56:09;13.63;;;4.03;;
22213;SDS011;11276;43.566;27.824;2022-09-06T04:58:39;6.60;;;3.80;;
22213;SDS011;11276;43.566;27.824;2022-09-06T05:01:05;8.13;;;3.90;;
22213;SDS011;11276;43.566;27.824;2022-09-06T05:03:32;10.10;;;4.47;;
22213;SDS011;11276;43.566;27.824;2022-09-06T05:06:03;16.07;;;4.07;;
22213;SDS011;11276;43.566;27.824;2022-09-06T05:08:43;16.47;;;4.07;;
22213;SDS011;11276;43.566;27.824;2022-09-06T05:11:10;13.87;;;4.13;;
22213;SDS011;11276;43.566;27.824;2022-09-06T05:13:37;8.73;;;4.20;;
22213;SDS011;11276;43.566;27.824;2022-09-06T05:16:05;8.70;;;4.43;;
22213;SDS011;11276;43.566;27.824;2022-09-06T05:18:32;13.93;;;4.50;;
22213;SDS011;11276;43.566;27.824;2022-09-06T05:21:00;13.10;;;4.20;;
22213;SDS011;11276;43.566;27.824;2022-09-06T05:23:27;11.60;;;5.37;;
22213;SDS011;11276;43.566;27.824;2022-09-06T05:25:54;19.70;;;4.17;;
22213;SDS011;11276;43.566;27.824;2022-09-06T05:28:20;14.23;;;4.97;;
22213;SDS011;11276;43.566;27.824;2022-09-06T05:30:47;12.40;;;4.50;;
22213;SDS011;11276;43.566;27.824;2022-09-06T05:33:18;17.40;;;4.80;;
22213;SDS011;11276;43.566;27.824;2022-09-06T05:35:46;15.00;;;3.97;;
22213;SDS011;11276;43.566;27.824;2022-09-06T05:38:14;16.43;;;4.53;;
22213;SDS011;11276;43.566;27.824;2022-09-06T05:40:40;16.17;;;4.60;;
22213;SDS011;11276;43.566;27.824;2022-09-06T05:43:07;10.53;;;3.50;;
22213;SDS011;11276;43.566;27.824;2022-09-06T05:45:34;9.00;;;3.67;;
22213;SDS011;11276;43.566;27.824;2022-09-06T05:48:01;12.80;;;3.80;;
22213;SDS011;11276;43.566;27.824;2022-09-06T05:50:29;8.53;;;4.33;;
22213;SDS011;11276;43.566;27.824;2022-09-06T05:52:56;8.50;;;3.60;;
22213;SDS011;11276;43.566;27.824;2022-09-06T05:55:22;10.73;;;3.17;;
22213;SDS011;11276;43.566;27.824;2022-09-06T05:57:49;9.53;;;3.67;;
22213;SDS011;11276;43.566;27.824;2022-09-06T06:00:16;10.93;;;3.30;;
22213;SDS011;11276;43.566;27.824;2022-09-06T06:02:45;9.10;;;3.23;;
22213;SDS011;11276;43.566;27.824;2022-09-06T06:05:13;11.93;;;3.17;;
22213;SDS011;11276;43.566;27.824;2022-09-06T06:07:41;7.53;;;3.07;;
22213;SDS011;11276;43.566;27.824;2022-09-06T06:10:08;10.80;;;3.50;;
22213;SDS011;11276;43.566;27.824;2022-09-06T06:12:35;8.20;;;3.10;;
22213;SDS011;11276;43.566;27.824;2022-09-06T06:15:02;2.57;;;2.20;;
22213;SDS011;11276;43.566;27.824;2022-09-06T06:17:30;5.73;;;2.27;;
22213;SDS011;11276;43.566;27.824;2022-09-06T06:19:57;5.00;;;2.27;;
22213;SDS011;11276;43.566;27.824;2022-09-06T06:22:24;3.80;;;2.67;;
22213;SDS011;11276;43.566;27.824;2022-09-06T06:24:51;6.53;;;2.30;;
22213;SDS011;11276;43.566;27.824;2022-09-06T06:27:18;4.17;;;2.60;;
22213;SDS011;11276;43.566;27.824;2022-09-06T06:29:44;7.00;;;2.33;;
22213;SDS011;11276;43.566;27.824;2022-09-06T06:32:11;3.50;;;2.50;;
22213;SDS011;11276;43.566;27.824;2022-09-06T06:34:38;18.53;;;2.90;;
22213;SDS011;11276;43.566;27.824;2022-09-06T06:37:05;7.80;;;2.40;;
22213;SDS011;11276;43.566;27.824;2022-09-06T06:39:31;7.40;;;2.40;;
22213;SDS011;11276;43.566;27.824;2022-09-06T06:41:58;6.23;;;2.13;;
22213;SDS011;11276;43.566;27.824;2022-09-06T06:44:25;3.80;;;2.17;;
22213;SDS011;11276;43.566;27.824;2022-09-06T06:46:53;5.67;;;2.30;;
22213;SDS011;11276;43.566;27.824;2022-09-06T06:49:23;3.87;;;2.10;;
22213;SDS011;11276;43.566;27.824;2022-09-06T06:51:50;4.30;;;2.27;;
22213;SDS011;11276;43.566;27.824;2022-09-06T06:54:17;4.77;;;2.03;;
22213;SDS011;11276;43.566;27.824;2022-09-06T06:56:44;3.23;;;1.90;;
22213;SDS011;11276;43.566;27.824;2022-09-06T06:59:11;3.60;;;2.30;;
22213;SDS011;11276;43.566;27.824;2022-09-06T07:01:39;2.40;;;1.90;;
22213;SDS011;11276;43.566;27.824;2022-09-06T07:04:06;4.83;;;2.00;;
22213;SDS011;11276;43.566;27.824;2022-09-06T07:06:45;12.63;;;3.00;;
22213;SDS011;11276;43.566;27.824;2022-09-06T07:09:34;2.20;;;2.00;;
22213;SDS011;11276;43.566;27.824;2022-09-06T07:12:22;10.63;;;2.30;;
22213;SDS011;11276;43.566;27.824;2022-09-06T07:14:48;2.87;;;1.80;;
22213;SDS011;11276;43.566;27.824;2022-09-06T07:17:15;5.33;;;2.13;;
22213;SDS011;11276;43.566;27.824;2022-09-06T07:19:42;4.33;;;1.77;;
22213;SDS011;11276;43.566;27.824;2022-09-06T07:22:29;2.37;;;2.00;;
22213;SDS011;11276;43.566;27.824;2022-09-06T07:24:55;2.70;;;1.73;;
22213;SDS011;11276;43.566;27.824;2022-09-06T07:27:22;4.57;;;1.90;;
22213;SDS011;11276;43.566;27.824;2022-09-06T07:30:09;7.80;;;1.80;;
22213;SDS011;11276;43.566;27.824;2022-09-06T07:32:36;1.50;;;1.40;;
22213;SDS011;11276;43.566;27.824;2022-09-06T07:35:03;3.40;;;2.03;;
22213;SDS011;11276;43.566;27.824;2022-09-06T07:37:30;3.40;;;1.80;;
22213;SDS011;11276;43.566;27.824;2022-09-06T07:39:57;2.60;;;1.60;;
22213;SDS011;11276;43.566;27.824;2022-09-06T07:42:24;7.13;;;1.80;;
22213;SDS011;11276;43.566;27.824;2022-09-06T07:44:50;5.43;;;1.60;;
22213;SDS011;11276;43.566;27.824;2022-09-06T07:47:17;2.30;;;1.37;;
22213;SDS011;11276;43.566;27.824;2022-09-06T07:50:04;3.63;;;2.00;;
22213;SDS011;11276;43.566;27.824;2022-09-06T07:52:51;6.17;;;1.50;;
22213;SDS011;11276;43.566;27.824;2022-09-06T07:55:33;4.40;;;1.70;;
22213;SDS011;11276;43.566;27.824;2022-09-06T07:58:00;2.80;;;1.80;;
22213;SDS011;11276;43.566;27.824;2022-09-06T08:00:26;3.87;;;2.03;;
22213;SDS011;11276;43.566;27.824;2022-09-06T08:02:53;7.43;;;2.17;;
22213;SDS011;11276;43.566;27.824;2022-09-06T08:05:20;7.80;;;1.80;;
22213;SDS011;11276;43.566;27.824;2022-09-06T08:08:06;2.20;;;1.90;;
22213;SDS011;11276;43.566;27.824;2022-09-06T08:10:53;4.07;;;1.83;;
22213;SDS011;11276;43.566;27.824;2022-09-06T08:13:20;5.10;;;1.87;;
22213;SDS011;11276;43.566;27.824;2022-09-06T08:15:47;6.10;;;2.17;;
22213;SDS011;11276;43.566;27.824;2022-09-06T08:18:13;2.00;;;1.53;;
22213;SDS011;11276;43.566;27.824;2022-09-06T08:20:43;3.00;;;1.53;;
22213;SDS011;11276;43.566;27.824;2022-09-06T08:23:10;1.70;;;1.60;;
22213;SDS011;11276;43.566;27.824;2022-09-06T08:25:36;3.53;;;1.77;;
22213;SDS011;11276;43.566;27.824;2022-09-06T08:28:03;2.00;;;1.47;;
22213;SDS011;11276;43.566;27.824;2022-09-06T08:30:31;2.10;;;1.70;;
22213;SDS011;11276;43.566;27.824;2022-09-06T08:32:58;2.17;;;1.80;;
22213;SDS011;11276;43.566;27.824;2022-09-06T08:35:25;1.87;;;1.70;;
22213;SDS011;11276;43.566;27.824;2022-09-06T08:37:52;2.20;;;1.73;;
22213;SDS011;11276;43.566;27.824;2022-09-06T08:40:19;1.83;;;1.63;;
22213;SDS011;11276;43.566;27.824;2022-09-06T08:42:49;2.30;;;1.53;;
22213;SDS011;11276;43.566;27.824;2022-09-06T08:45:16;1.50;;;1.30;;
22213;SDS011;11276;43.566;27.824;2022-09-06T08:47:44;3.00;;;1.60;;
22213;SDS011;11276;43.566;27.824;2022-09-06T08:50:11;3.70;;;1.60;;
22213;SDS011;11276;43.566;27.824;2022-09-06T08:55:44;1.73;;;1.50;;
22213;SDS011;11276;43.566;27.824;2022-09-06T08:58:22;3.47;;;1.80;;
22213;SDS011;11276;43.566;27.824;2022-09-06T09:00:54;1.80;;;1.70;;
22213;SDS011;11276;43.566;27.824;2022-09-06T09:03:43;2.27;;;1.60;;
22213;SDS011;11276;43.566;27.824;2022-09-06T09:06:12;3.43;;;1.60;;
22213;SDS011;11276;43.566;27.824;2022-09-06T09:11:21;2.90;;;2.23;;
22213;SDS011;11276;43.566;27.824;2022-09-06T09:13:52;2.40;;;2.00;;
22213;SDS011;11276;43.566;27.824;2022-09-06T09:16:22;3.07;;;1.90;;
22213;SDS011;11276;43.566;27.824;2022-09-06T09:18:53;2.03;;;1.70;;
22213;SDS011;11276;43.566;27.824;2022-09-06T09:21:23;2.63;;;2.13;;
22213;SDS011;11276;43.566;27.824;2022-09-06T09:23:55;3.27;;;2.03;;
22213;SDS011;11276;43.566;27.824;2022-09-06T09:26:24;1.90;;;1.70;;
22213;SDS011;11276;43.566;27.824;2022-09-06T09:29:07;2.37;;;2.00;;
22213;SDS011;11276;43.566;27.824;2022-09-06T09:31:49;5.57;;;2.10;;
22213;SDS011;11276;43.566;27.824;2022-09-06T09:34:29;3.77;;;1.90;;
22213;SDS011;11276;43.566;27.824;2022-09-06T09:37:09;2.57;;;1.70;;
22213;SDS011;11276;43.566;27.824;2022-09-06T09:39:57;2.90;;;1.80;;
22213;SDS011;11276;43.566;27.824;2022-09-06T09:42:28;4.50;;;2.20;;
22213;SDS011;11276;43.566;27.824;2022-09-06T09:44:58;4.80;;;2.63;;
22213;SDS011;11276;43.566;27.824;2022-09-06T09:47:26;4.00;;;2.07;;
22213;SDS011;11276;43.566;27.824;2022-09-06T09:49:55;8.10;;;2.07;;
22213;SDS011;11276;43.566;27.824;2022-09-06T09:52:27;4.17;;;1.93;;
22213;SDS011;11276;43.566;27.824;2022-09-06T09:55:00;3.00;;;1.63;;
22213;SDS011;11276;43.566;27.824;2022-09-06T09:57:29;2.57;;;1.90;;
22213;SDS011;11276;43.566;27.824;2022-09-06T09:59:58;2.03;;;1.63;;
22213;SDS011;11276;43.566;27.824;2022-09-06T10:02:29;3.40;;;2.27;;
22213;SDS011;11276;43.566;27.824;2022-09-06T10:05:22;4.90;;;2.67;;
22213;SDS011;11276;43.566;27.824;2022-09-06T10:07:51;4.77;;;2.07;;
22213;SDS011;11276;43.566;27.824;2022-09-06T10:13:20;6.30;;;2.27;;
22213;SDS011;11276;43.566;27.824;2022-09-06T10:15:51;3.93;;;2.07;;
22213;SDS011;11276;43.566;27.824;2022-09-06T10:21:28;3.63;;;1.87;;
22213;SDS011;11276;43.566;27.824;2022-09-06T10:26:52;4.10;;;2.53;;
22213;SDS011;11276;43.566;27.824;2022-09-06T10:29:43;7.10;;;1.90;;
22213;SDS011;11276;43.566;27.824;2022-09-06T10:35:22;2.80;;;2.20;;
22213;SDS011;11276;43.566;27.824;2022-09-06T10:41:00;2.40;;;1.90;;
22213;SDS011;11276;43.566;27.824;2022-09-06T10:43:35;2.40;;;2.20;;
22213;SDS011;11276;43.566;27.824;2022-09-06T10:46:13;3.00;;;2.13;;
22213;SDS011;11276;43.566;27.824;2022-09-06T10:48:43;3.93;;;2.10;;
22213;SDS011;11276;43.566;27.824;2022-09-06T10:54:16;3.47;;;1.97;;
22213;SDS011;11276;43.566;27.824;2022-09-06T11:00:03;2.90;;;2.17;;
22213;SDS011;11276;43.566;27.824;2022-09-06T11:03:43;2.67;;;2.00;;
22213;SDS011;11276;43.566;27.824;2022-09-06T11:06:18;5.20;;;2.67;;
22213;SDS011;11276;43.566;27.824;2022-09-06T11:08:57;3.93;;;1.90;;
22213;SDS011;11276;43.566;27.824;2022-09-06T11:11:27;7.90;;;2.47;;
22213;SDS011;11276;43.566;27.824;2022-09-06T11:14:06;2.67;;;2.07;;
22213;SDS011;11276;43.566;27.824;2022-09-06T11:16:45;2.70;;;2.13;;
22213;SDS011;11276;43.566;27.824;2022-09-06T11:19:19;3.97;;;2.10;;
22213;SDS011;11276;43.566;27.824;2022-09-06T11:22:10;2.80;;;1.90;;
22213;SDS011;11276;43.566;27.824;2022-09-06T11:30:00;3.73;;;2.20;;
22213;SDS011;11276;43.566;27.824;2022-09-06T11:32:33;3.43;;;2.23;;
22213;SDS011;11276;43.566;27.824;2022-09-06T11:35:05;4.93;;;2.13;;
22213;SDS011;11276;43.566;27.824;2022-09-06T11:40:15;3.70;;;2.50;;
22213;SDS011;11276;43.566;27.824;2022-09-06T11:47:50;3.00;;;1.80;;
22213;SDS011;11276;43.566;27.824;2022-09-06T11:52:47;4.87;;;1.97;;
22213;SDS011;11276;43.566;27.824;2022-09-06T11:55:15;4.50;;;2.13;;
22213;SDS011;11276;43.566;27.824;2022-09-06T11:57:46;2.50;;;1.97;;
22213;SDS011;11276;43.566;27.824;2022-09-06T12:00:17;5.60;;;1.97;;
22213;SDS011;11276;43.566;27.824;2022-09-06T12:02:49;3.93;;;1.50;;
22213;SDS011;11276;43.566;27.824;2022-09-06T12:05:18;5.60;;;1.83;;
22213;SDS011;11276;43.566;27.824;2022-09-06T12:16:12;9.00;;;2.10;;
22213;SDS011;11276;43.566;27.824;2022-09-06T12:24:54;7.10;;;2.20;;
22213;SDS011;11276;43.566;27.824;2022-09-06T12:30:02;3.00;;;2.10;;
22213;SDS011;11276;43.566;27.824;2022-09-06T12:32:30;4.67;;;2.10;;
22213;SDS011;11276;43.566;27.824;2022-09-06T12:35:20;5.60;;;2.43;;
22213;SDS011;11276;43.566;27.824;2022-09-06T12:38:13;3.37;;;2.23;;
22213;SDS011;11276;43.566;27.824;2022-09-06T12:40:45;2.83;;;2.40;;
22213;SDS011;11276;43.566;27.824;2022-09-06T12:43:14;5.33;;;2.10;;
22213;SDS011;11276;43.566;27.824;2022-09-06T12:45:43;3.20;;;1.93;;
22213;SDS011;11276;43.566;27.824;2022-09-06T12:48:13;5.83;;;2.20;;
22213;SDS011;11276;43.566;27.824;2022-09-06T12:50:59;3.03;;;2.03;;
22213;SDS011;11276;43.566;27.824;2022-09-06T12:53:31;3.00;;;2.07;;
22213;SDS011;11276;43.566;27.824;2022-09-06T12:56:04;4.50;;;2.03;;
22213;SDS011;11276;43.566;27.824;2022-09-06T12:58:37;3.37;;;2.50;;
22213;SDS011;11276;43.566;27.824;2022-09-06T13:01:09;4.33;;;2.47;;
22213;SDS011;11276;43.566;27.824;2022-09-06T13:03:46;5.40;;;2.10;;
22213;SDS011;11276;43.566;27.824;2022-09-06T13:06:32;2.90;;;2.17;;
22213;SDS011;11276;43.566;27.824;2022-09-06T13:09:02;4.87;;;2.80;;
22213;SDS011;11276;43.566;27.824;2022-09-06T13:11:34;3.13;;;2.53;;
22213;SDS011;11276;43.566;27.824;2022-09-06T13:14:10;3.37;;;2.03;;
22213;SDS011;11276;43.566;27.824;2022-09-06T13:16:44;3.10;;;2.13;;
22213;SDS011;11276;43.566;27.824;2022-09-06T13:19:19;2.93;;;2.60;;
22213;SDS011;11276;43.566;27.824;2022-09-06T13:21:56;4.50;;;1.90;;
22213;SDS011;11276;43.566;27.824;2022-09-06T13:27:21;4.17;;;2.00;;
22213;SDS011;11276;43.566;27.824;2022-09-06T13:30:06;4.13;;;1.90;;
22213;SDS011;11276;43.566;27.824;2022-09-06T13:32:35;3.50;;;2.00;;
22213;SDS011;11276;43.566;27.824;2022-09-06T13:35:10;2.00;;;1.60;;
22213;SDS011;11276;43.566;27.824;2022-09-06T13:37:49;4.43;;;1.80;;
22213;SDS011;11276;43.566;27.824;2022-09-06T13:43:10;3.00;;;2.03;;
22213;SDS011;11276;43.566;27.824;2022-09-06T13:45:38;7.37;;;2.47;;
22213;SDS011;11276;43.566;27.824;2022-09-06T13:48:06;3.83;;;2.20;;
22213;SDS011;11276;43.566;27.824;2022-09-06T13:50:44;2.60;;;1.77;;
22213;SDS011;11276;43.566;27.824;2022-09-06T13:53:11;3.10;;;2.30;;
22213;SDS011;11276;43.566;27.824;2022-09-06T13:55:44;2.47;;;1.73;;
22213;SDS011;11276;43.566;27.824;2022-09-06T13:58:11;2.73;;;2.30;;
22213;SDS011;11276;43.566;27.824;2022-09-06T14:00:38;8.17;;;2.60;;
22213;SDS011;11276;43.566;27.824;2022-09-06T14:03:07;2.27;;;1.80;;
22213;SDS011;11276;43.566;27.824;2022-09-06T14:05:38;3.90;;;2.10;;
22213;SDS011;11276;43.566;27.824;2022-09-06T14:08:05;4.23;;;2.07;;
22213;SDS011;11276;43.566;27.824;2022-09-06T14:10:32;5.37;;;2.03;;
22213;SDS011;11276;43.566;27.824;2022-09-06T14:12:59;3.40;;;2.23;;
22213;SDS011;11276;43.566;27.824;2022-09-06T14:15:25;2.57;;;1.93;;
22213;SDS011;11276;43.566;27.824;2022-09-06T14:17:52;3.93;;;2.23;;
22213;SDS011;11276;43.566;27.824;2022-09-06T14:20:19;6.83;;;2.43;;
22213;SDS011;11276;43.566;27.824;2022-09-06T14:22:46;3.00;;;2.33;;
22213;SDS011;11276;43.566;27.824;2022-09-06T14:25:12;3.63;;;1.73;;
22213;SDS011;11276;43.566;27.824;2022-09-06T14:27:39;4.00;;;2.33;;
22213;SDS011;11276;43.566;27.824;2022-09-06T14:30:06;2.40;;;1.90;;
22213;SDS011;11276;43.566;27.824;2022-09-06T14:32:34;7.43;;;2.27;;
22213;SDS011;11276;43.566;27.824;2022-09-06T14:35:00;8.40;;;2.23;;
22213;SDS011;11276;43.566;27.824;2022-09-06T14:37:31;3.40;;;2.30;;
22213;SDS011;11276;43.566;27.824;2022-09-06T14:39:58;5.90;;;2.20;;
22213;SDS011;11276;43.566;27.824;2022-09-06T14:42:25;3.10;;;2.27;;
22213;SDS011;11276;43.566;27.824;2022-09-06T14:44:53;8.60;;;2.93;;
22213;SDS011;11276;43.566;27.824;2022-09-06T14:47:20;2.80;;;2.00;;
22213;SDS011;11276;43.566;27.824;2022-09-06T14:49:47;2.87;;;2.10;;
22213;SDS011;11276;43.566;27.824;2022-09-06T14:52:14;5.00;;;2.40;;
22213;SDS011;11276;43.566;27.824;2022-09-06T14:54:40;2.90;;;2.13;;
22213;SDS011;11276;43.566;27.824;2022-09-06T14:57:07;3.93;;;2.10;;
22213;SDS011;11276;43.566;27.824;2022-09-06T14:59:34;7.63;;;2.60;;
22213;SDS011;11276;43.566;27.824;2022-09-06T15:02:01;4.63;;;2.00;;
22213;SDS011;11276;43.566;27.824;2022-09-06T15:04:29;3.60;;;2.03;;
22213;SDS011;11276;43.566;27.824;2022-09-06T15:06:55;2.37;;;1.90;;
22213;SDS011;11276;43.566;27.824;2022-09-06T15:09:22;3.27;;;2.10;;
22213;SDS011;11276;43.566;27.824;2022-09-06T15:11:49;6.80;;;2.00;;
22213;SDS011;11276;43.566;27.824;2022-09-06T15:14:18;3.73;;;2.27;;
22213;SDS011;11276;43.566;27.824;2022-09-06T15:16:48;2.77;;;1.80;;
22213;SDS011;11276;43.566;27.824;2022-09-06T15:19:21;6.53;;;2.00;;
22213;SDS011;11276;43.566;27.824;2022-09-06T15:21:49;2.70;;;1.80;;
22213;SDS011;11276;43.566;27.824;2022-09-06T15:24:16;6.90;;;2.50;;
22213;SDS011;11276;43.566;27.824;2022-09-06T15:26:43;5.00;;;2.20;;
22213;SDS011;11276;43.566;27.824;2022-09-06T15:29:10;3.90;;;1.97;;
22213;SDS011;11276;43.566;27.824;2022-09-06T15:31:38;6.10;;;2.20;;
22213;SDS011;11276;43.566;27.824;2022-09-06T15:34:06;4.87;;;1.83;;
22213;SDS011;11276;43.566;27.824;2022-09-06T15:36:34;4.03;;;2.23;;
22213;SDS011;11276;43.566;27.824;2022-09-06T15:39:03;3.50;;;2.37;;
22213;SDS011;11276;43.566;27.824;2022-09-06T15:41:31;4.80;;;2.13;;
22213;SDS011;11276;43.566;27.824;2022-09-06T15:44:04;5.13;;;1.93;;
22213;SDS011;11276;43.566;27.824;2022-09-06T15:49:05;3.87;;;2.40;;
22213;SDS011;11276;43.566;27.824;2022-09-06T15:51:34;2.90;;;2.23;;
22213;SDS011;11276;43.566;27.824;2022-09-06T15:54:03;3.47;;;2.53;;
22213;SDS011;11276;43.566;27.824;2022-09-06T15:56:31;3.50;;;2.40;;
22213;SDS011;11276;43.566;27.824;2022-09-06T15:58:58;3.93;;;2.23;;
22213;SDS011;11276;43.566;27.824;2022-09-06T16:01:25;2.80;;;2.00;;
22213;SDS011;11276;43.566;27.824;2022-09-06T16:03:55;5.03;;;2.47;;
22213;SDS011;11276;43.566;27.824;2022-09-06T16:06:30;6.60;;;2.17;;
22213;SDS011;11276;43.566;27.824;2022-09-06T16:09:09;3.00;;;2.40;;
22213;SDS011;11276;43.566;27.824;2022-09-06T16:11:39;2.60;;;2.13;;
22213;SDS011;11276;43.566;27.824;2022-09-06T16:14:08;4.97;;;2.97;;
22213;SDS011;11276;43.566;27.824;2022-09-06T16:16:37;4.80;;;2.63;;
22213;SDS011;11276;43.566;27.824;2022-09-06T16:19:05;4.93;;;2.70;;
22213;SDS011;11276;43.566;27.824;2022-09-06T16:21:33;3.37;;;2.40;;
22213;SDS011;11276;43.566;27.824;2022-09-06T16:24:03;5.60;;;3.30;;
22213;SDS011;11276;43.566;27.824;2022-09-06T16:26:35;7.10;;;2.80;;
22213;SDS011;11276;43.566;27.824;2022-09-06T16:29:05;5.20;;;2.00;;
22213;SDS011;11276;43.566;27.824;2022-09-06T16:31:33;4.97;;;2.33;;